createdAt,value
2023-03-16T00:00:59.335Z,16.20
2023-03-16T00:01:59.393Z,15.10
2023-03-16T00:02:59.349Z,24.00
2023-03-16T00:03:59.345Z,17.20
2023-03-16T00:04:59.313Z,15.70
2023-03-16T00:05:59.355Z,20.50
2023-03-16T00:06:59.298Z,13.50
2023-03-16T00:07:59.368Z,18.80
2023-03-16T00:08:59.269Z,19.30
2023-03-16T00:09:59.255Z,17.80
2023-03-16T00:10:59.233Z,20.80
2023-03-16T00:11:59.323Z,15.10
2023-03-16T00:12:59.216Z,24.20
2023-03-16T00:13:59.200Z,18.60
2023-03-16T00:14:59.249Z,17.10
2023-03-16T00:15:59.278Z,17.70
2023-03-16T00:16:59.204Z,16.90
2023-03-16T00:17:59.174Z,15.10
2023-03-16T00:18:59.154Z,19.70
2023-03-16T00:19:59.234Z,21.30
2023-03-16T00:20:59.154Z,19.80
2023-03-16T00:21:59.142Z,15.40
2023-03-16T00:22:59.128Z,16.30
2023-03-16T00:23:59.097Z,17.90
2023-03-16T00:24:59.136Z,14.00
2023-03-16T00:25:59.138Z,16.10
2023-03-16T00:26:59.087Z,13.20
2023-03-16T00:27:59.104Z,15.30
2023-03-16T00:28:59.085Z,15.20
2023-03-16T00:29:59.059Z,16.60
2023-03-16T00:30:59.062Z,16.60
2023-03-16T00:31:59.051Z,14.80
2023-03-16T00:32:59.071Z,16.10
2023-03-16T00:33:59.014Z,18.50
2023-03-16T00:34:59.003Z,15.10
2023-03-16T00:35:59.022Z,13.50
2023-03-16T00:36:59.006Z,15.40
2023-03-16T00:37:59.009Z,14.90
2023-03-16T00:38:58.950Z,13.30
2023-03-16T00:39:58.945Z,15.80
2023-03-16T00:40:58.945Z,17.20
2023-03-16T00:41:58.956Z,17.90
2023-03-16T00:42:58.929Z,16.60
2023-03-16T00:43:58.971Z,17.00
2023-03-16T00:44:58.922Z,14.90
2023-03-16T00:45:58.936Z,17.10
2023-03-16T00:46:58.859Z,17.30
2023-03-16T00:47:58.914Z,16.30
2023-03-16T00:48:58.850Z,13.00
2023-03-16T00:49:58.858Z,11.70
2023-03-16T00:50:58.843Z,12.60
2023-03-16T00:51:58.829Z,11.80
2023-03-16T00:52:58.821Z,15.30
2023-03-16T00:53:58.823Z,11.90
2023-03-16T00:54:58.801Z,13.50
2023-03-16T00:55:58.796Z,15.10
2023-03-16T00:56:58.763Z,13.30
2023-03-16T00:57:58.767Z,13.90
2023-03-16T00:58:58.734Z,12.40
2023-03-16T00:59:58.796Z,12.70
2023-03-16T01:00:58.781Z,15.50
2023-03-16T01:01:58.738Z,13.20
2023-03-16T01:02:58.739Z,14.90
2023-03-16T01:03:58.707Z,13.40
2023-03-16T01:04:58.729Z,14.30
2023-03-16T01:05:58.704Z,14.10
2023-03-16T01:06:58.652Z,17.50
2023-03-16T01:07:58.701Z,17.20
2023-03-16T01:08:58.648Z,14.30
2023-03-16T01:09:58.649Z,17.40
2023-03-16T01:10:58.650Z,19.50
2023-03-16T01:11:58.627Z,14.80
2023-03-16T01:12:58.637Z,15.00
2023-03-16T01:13:58.596Z,13.60
2023-03-16T01:14:58.582Z,12.80
2023-03-16T01:15:58.580Z,16.70
2023-03-16T01:16:58.609Z,13.30
2023-03-16T01:17:58.584Z,14.90
2023-03-16T01:18:58.568Z,18.10
2023-03-16T01:19:58.570Z,13.50
2023-03-16T01:20:58.514Z,10.70
2023-03-16T01:21:58.518Z,10.80
2023-03-16T01:22:58.531Z,10.00
2023-03-16T01:23:58.517Z,10.50
2023-03-16T01:24:58.501Z,12.50
2023-03-16T01:25:58.493Z,14.30
2023-03-16T01:26:58.488Z,10.40
2023-03-16T01:27:58.464Z,14.10
2023-03-16T01:28:58.432Z,14.30
2023-03-16T01:29:58.459Z,12.10
2023-03-16T01:30:58.513Z,16.10
2023-03-16T01:31:58.416Z,13.70
2023-03-16T01:32:58.484Z,16.40
2023-03-16T01:33:58.463Z,12.10
2023-03-16T01:34:58.391Z,11.90
2023-03-16T01:35:58.423Z,10.90
2023-03-16T01:36:58.374Z,14.80
2023-03-16T01:37:58.363Z,13.10
2023-03-16T01:38:58.339Z,11.70
2023-03-16T01:39:58.342Z,11.80
2023-03-16T01:40:58.350Z,11.60
2023-03-16T01:41:58.369Z,12.20
2023-03-16T01:42:58.301Z,13.40
2023-03-16T01:43:58.410Z,13.50
2023-03-16T01:44:58.274Z,12.00
2023-03-16T01:45:58.341Z,14.10
2023-03-16T01:46:58.289Z,12.90
2023-03-16T01:47:58.278Z,14.90
2023-03-16T01:48:58.243Z,13.60
2023-03-16T01:49:58.244Z,10.50
2023-03-16T01:50:58.275Z,14.70
2023-03-16T01:51:58.242Z,11.50
2023-03-16T01:52:58.319Z,12.50
2023-03-16T01:53:58.205Z,13.40
2023-03-16T01:54:58.202Z,11.30
2023-03-16T01:55:58.195Z,12.30
2023-03-16T01:56:58.192Z,12.30
2023-03-16T01:57:58.184Z,13.40
2023-03-16T01:58:58.130Z,12.60
2023-03-16T01:59:58.158Z,11.70
2023-03-16T02:00:58.132Z,12.60
2023-03-16T02:01:58.126Z,13.00
2023-03-16T02:02:58.151Z,11.90
2023-03-16T02:03:58.142Z,11.00
2023-03-16T02:04:58.081Z,13.70
2023-03-16T02:05:58.099Z,10.80
2023-03-16T02:06:58.072Z,12.70
2023-03-16T02:07:58.074Z,13.20
2023-03-16T02:08:58.051Z,15.30
2023-03-16T02:09:58.075Z,12.60
2023-03-16T02:10:58.018Z,13.90
2023-03-16T02:11:58.046Z,12.40
2023-03-16T02:12:58.004Z,11.10
2023-03-16T02:13:58.043Z,13.50
2023-03-16T02:14:57.980Z,12.50
2023-03-16T02:15:58.055Z,10.70
2023-03-16T02:16:57.949Z,13.10
2023-03-16T02:17:57.988Z,14.70
2023-03-16T02:18:57.980Z,10.20
2023-03-16T02:19:57.943Z,12.20
2023-03-16T02:20:57.915Z,12.10
2023-03-16T02:21:57.926Z,11.50
2023-03-16T02:22:57.914Z,13.70
2023-03-16T02:23:57.900Z,15.10
2023-03-16T02:24:57.894Z,10.50
2023-03-16T02:25:57.965Z,14.20
2023-03-16T02:26:57.877Z,12.10
2023-03-16T02:27:57.870Z,13.80
2023-03-16T02:28:57.837Z,14.80
2023-03-16T02:29:57.892Z,12.30
2023-03-16T02:30:57.882Z,12.30
2023-03-16T02:31:57.838Z,10.40
2023-03-16T02:32:57.852Z,12.00
2023-03-16T02:33:57.792Z,12.50
2023-03-16T02:34:57.763Z,12.70
2023-03-16T02:35:57.883Z,10.80
2023-03-16T02:36:57.807Z,14.70
2023-03-16T02:37:57.760Z,13.40
2023-03-16T02:38:57.741Z,11.60
2023-03-16T02:39:57.739Z,11.10
2023-03-16T02:40:57.777Z,13.20
2023-03-16T02:41:57.738Z,11.10
2023-03-16T02:42:58.358Z,11.10
2023-03-16T02:43:57.689Z,12.40
2023-03-16T02:44:57.676Z,12.00
2023-03-16T02:45:57.666Z,9.50
2023-03-16T02:46:57.662Z,13.80
2023-03-16T02:47:57.670Z,10.20
2023-03-16T02:48:57.669Z,11.20
2023-03-16T02:49:57.650Z,7.90
2023-03-16T02:50:57.635Z,10.90
2023-03-16T02:51:57.639Z,8.70
2023-03-16T02:52:57.611Z,10.00
2023-03-16T02:53:57.606Z,10.80
2023-03-16T02:54:57.578Z,8.40
2023-03-16T02:55:57.637Z,9.50
2023-03-16T02:56:57.566Z,10.20
2023-03-16T02:57:58.410Z,8.60
2023-03-16T02:58:57.552Z,7.20
2023-03-16T02:59:57.574Z,7.30
2023-03-16T03:00:57.515Z,9.10
2023-03-16T03:01:57.558Z,7.80
2023-03-16T03:02:57.532Z,9.80
2023-03-16T03:03:57.554Z,8.50
2023-03-16T03:04:57.464Z,6.60
2023-03-16T03:05:57.479Z,9.10
2023-03-16T03:06:57.460Z,7.70
2023-03-16T03:07:58.460Z,6.70
2023-03-16T03:08:57.422Z,8.10
2023-03-16T03:09:57.464Z,7.00
2023-03-16T03:10:57.427Z,7.30
2023-03-16T03:11:57.433Z,7.10
2023-03-16T03:12:57.411Z,7.80
2023-03-16T03:13:57.401Z,6.20
2023-03-16T03:14:57.412Z,7.80
2023-03-16T03:15:57.481Z,9.20
2023-03-16T03:16:57.408Z,7.60
2023-03-16T03:17:57.344Z,8.60
2023-03-16T03:18:57.357Z,10.10
2023-03-16T03:19:58.048Z,9.30
2023-03-16T03:20:57.315Z,10.10
2023-03-16T03:21:57.352Z,7.80
2023-03-16T03:22:57.294Z,8.80
2023-03-16T03:23:57.297Z,7.90
2023-03-16T03:24:57.285Z,8.00
2023-03-16T03:25:57.290Z,8.00
2023-03-16T03:26:57.261Z,8.30
2023-03-16T03:27:57.349Z,7.90
2023-03-16T03:28:57.264Z,7.90
2023-03-16T03:29:57.241Z,7.90
2023-03-16T03:30:57.219Z,8.70
2023-03-16T03:31:57.289Z,8.80
2023-03-16T03:32:57.228Z,8.00
2023-03-16T03:33:57.274Z,7.60
2023-03-16T03:34:57.200Z,7.80
2023-03-16T03:35:57.293Z,6.70
2023-03-16T03:36:57.161Z,8.30
2023-03-16T03:37:57.163Z,6.70
2023-03-16T03:38:57.130Z,8.40
2023-03-16T03:39:57.114Z,6.70
2023-03-16T03:40:57.110Z,8.50
2023-03-16T03:41:57.135Z,7.60
2023-03-16T03:42:57.089Z,10.50
2023-03-16T03:43:57.135Z,6.60
2023-03-16T03:44:57.070Z,7.00
2023-03-16T03:45:57.228Z,7.00
2023-03-16T03:46:57.114Z,9.30
2023-03-16T03:47:57.063Z,7.60
2023-03-16T03:48:57.046Z,7.40
2023-03-16T03:49:57.039Z,4.80
2023-03-16T03:50:57.049Z,7.00
2023-03-16T03:51:57.026Z,7.40
2023-03-16T03:52:56.985Z,9.80
2023-03-16T03:53:57.003Z,7.30
2023-03-16T03:54:56.972Z,6.90
2023-03-16T03:55:57.003Z,6.20
2023-03-16T03:56:56.966Z,6.50
2023-03-16T03:57:56.972Z,6.80
2023-03-16T03:58:56.977Z,7.30
2023-03-16T03:59:56.961Z,7.10
2023-03-16T04:00:56.897Z,10.20
2023-03-16T04:01:56.930Z,7.80
2023-03-16T04:02:57.103Z,7.50
2023-03-16T04:03:56.894Z,7.30
2023-03-16T04:04:56.921Z,8.90
2023-03-16T04:05:56.879Z,7.80
2023-03-16T04:06:56.840Z,5.80
2023-03-16T04:07:56.900Z,6.00
2023-03-16T04:08:56.852Z,7.30
2023-03-16T04:09:56.851Z,7.30
2023-03-16T04:10:56.808Z,7.60
2023-03-16T04:11:56.834Z,8.10
2023-03-16T04:12:56.830Z,6.50
2023-03-16T04:13:56.765Z,7.00
2023-03-16T04:14:56.789Z,7.10
2023-03-16T04:15:56.750Z,7.40
2023-03-16T04:16:56.790Z,7.40
2023-03-16T04:17:56.728Z,7.20
2023-03-16T04:18:56.712Z,5.30
2023-03-16T04:19:56.722Z,5.80
2023-03-16T04:20:56.742Z,8.20
2023-03-16T04:21:56.712Z,6.50
2023-03-16T04:22:56.684Z,6.10
2023-03-16T04:23:56.658Z,6.60
2023-03-16T04:24:56.659Z,5.60
2023-03-16T04:25:56.652Z,7.10
2023-03-16T04:26:56.640Z,6.80
2023-03-16T04:27:56.629Z,6.70
2023-03-16T04:28:56.646Z,9.60
2023-03-16T04:29:56.622Z,6.80
2023-03-16T04:30:56.690Z,7.00
2023-03-16T04:31:56.572Z,7.10
2023-03-16T04:32:56.651Z,7.00
2023-03-16T04:33:56.629Z,9.30
2023-03-16T04:34:56.720Z,6.10
2023-03-16T04:35:56.583Z,5.50
2023-03-16T04:36:56.574Z,6.30
2023-03-16T04:37:56.506Z,6.70
2023-03-16T04:38:56.566Z,8.40
2023-03-16T04:39:56.514Z,6.20
2023-03-16T04:40:56.540Z,7.70
2023-03-16T04:41:56.483Z,4.80
2023-03-16T04:42:56.473Z,6.70
2023-03-16T04:43:56.476Z,7.00
2023-03-16T04:44:56.477Z,9.10
2023-03-16T04:45:56.556Z,7.00
2023-03-16T04:46:56.433Z,5.80
2023-03-16T04:47:56.415Z,7.60
2023-03-16T04:48:56.431Z,7.20
2023-03-16T04:49:56.413Z,5.80
2023-03-16T04:50:56.442Z,5.70
2023-03-16T04:51:56.377Z,8.00
2023-03-16T04:52:56.435Z,8.60
2023-03-16T04:53:56.351Z,8.40
2023-03-16T04:54:56.356Z,9.10
2023-03-16T04:55:56.333Z,6.00
2023-03-16T04:56:56.346Z,7.50
2023-03-16T04:57:56.331Z,7.20
2023-03-16T04:58:56.295Z,7.00
2023-03-16T04:59:56.297Z,6.50
2023-03-16T05:00:56.291Z,5.90
2023-03-16T05:01:56.335Z,5.70
2023-03-16T05:02:56.321Z,7.30
2023-03-16T05:03:58.543Z,5.50
2023-03-16T05:04:56.262Z,7.20
2023-03-16T05:05:56.316Z,6.40
2023-03-16T05:06:56.324Z,6.40
2023-03-16T05:07:56.218Z,6.50
2023-03-16T05:08:56.174Z,7.60
2023-03-16T05:09:56.207Z,5.10
2023-03-16T05:10:56.227Z,4.90
2023-03-16T05:11:56.159Z,7.70
2023-03-16T05:12:56.106Z,7.80
2023-03-16T05:13:56.202Z,5.90
2023-03-16T05:14:56.150Z,8.60
2023-03-16T05:15:56.221Z,6.60
2023-03-16T05:16:56.093Z,7.40
2023-03-16T05:17:56.162Z,5.90
2023-03-16T05:18:56.065Z,5.30
2023-03-16T05:19:56.047Z,6.60
2023-03-16T05:20:56.115Z,10.90
2023-03-16T05:21:56.025Z,5.70
2023-03-16T05:22:56.035Z,6.70
2023-03-16T05:23:56.004Z,6.20
2023-03-16T05:24:55.996Z,5.90
2023-03-16T05:25:56.033Z,9.20
2023-03-16T05:26:55.952Z,8.30
2023-03-16T05:27:55.943Z,8.00
2023-03-16T05:28:55.968Z,7.60
2023-03-16T05:29:55.939Z,7.20
2023-03-16T05:30:55.981Z,6.10
2023-03-16T05:31:56.024Z,6.50
2023-03-16T05:32:56.056Z,8.80
2023-03-16T05:33:55.886Z,9.00
2023-03-16T05:34:55.889Z,7.60
2023-03-16T05:35:55.893Z,6.60
2023-03-16T05:36:55.946Z,9.80
2023-03-16T05:37:55.877Z,7.30
2023-03-16T05:38:55.888Z,9.00
2023-03-16T05:39:55.826Z,10.40
2023-03-16T05:40:55.858Z,9.90
2023-03-16T05:41:55.792Z,7.90
2023-03-16T05:42:55.905Z,9.00
2023-03-16T05:43:55.803Z,7.00
2023-03-16T05:44:55.780Z,7.30
2023-03-16T05:45:55.778Z,9.20
2023-03-16T05:46:55.835Z,8.50
2023-03-16T05:47:55.767Z,7.10
2023-03-16T05:48:55.735Z,6.60
2023-03-16T05:49:55.744Z,9.30
2023-03-16T05:50:55.711Z,7.20
2023-03-16T05:51:55.716Z,6.80
2023-03-16T05:52:55.717Z,7.30
2023-03-16T05:53:55.751Z,9.40
2023-03-16T05:54:55.700Z,9.60
2023-03-16T05:55:55.668Z,7.40
2023-03-16T05:56:55.689Z,7.40
2023-03-16T05:57:55.717Z,5.70
2023-03-16T05:58:55.617Z,6.80
2023-03-16T05:59:55.649Z,8.50
2023-03-16T06:00:55.634Z,6.40
2023-03-16T06:01:55.619Z,8.60
2023-03-16T06:02:55.658Z,7.50
2023-03-16T06:03:55.620Z,10.80
2023-03-16T06:04:55.649Z,7.30
2023-03-16T06:05:55.557Z,8.60
2023-03-16T06:06:55.610Z,8.80
2023-03-16T06:07:55.561Z,9.10
2023-03-16T06:08:55.548Z,9.90
2023-03-16T06:09:55.560Z,7.60
2023-03-16T06:10:55.525Z,7.70
2023-03-16T06:11:55.500Z,7.20
2023-03-16T06:12:55.534Z,8.90
2023-03-16T06:13:55.482Z,8.10
2023-03-16T06:14:55.458Z,7.20
2023-03-16T06:15:55.557Z,9.70
2023-03-16T06:16:55.487Z,8.30
2023-03-16T06:17:55.425Z,7.30
2023-03-16T06:18:56.992Z,9.10
2023-03-16T06:19:55.412Z,8.30
2023-03-16T06:20:55.405Z,6.80
2023-03-16T06:21:55.460Z,8.00
2023-03-16T06:22:55.399Z,10.20
2023-03-16T06:23:55.378Z,7.50
2023-03-16T06:24:55.368Z,8.30
2023-03-16T06:25:55.359Z,8.70
2023-03-16T06:26:55.363Z,9.20
2023-03-16T06:27:55.353Z,7.00
2023-03-16T06:28:55.333Z,6.90
2023-03-16T06:29:55.347Z,6.60
2023-03-16T06:30:55.346Z,8.90
2023-03-16T06:31:55.356Z,9.80
2023-03-16T06:32:55.401Z,6.60
2023-03-16T06:33:55.271Z,5.90
2023-03-16T06:34:55.256Z,13.90
2023-03-16T06:35:55.371Z,12.50
2023-03-16T06:36:55.252Z,9.20
2023-03-16T06:37:55.229Z,9.90
2023-03-16T06:38:55.244Z,12.80
2023-03-16T06:39:55.207Z,8.50
2023-03-16T06:40:55.220Z,8.20
2023-03-16T06:41:55.203Z,10.20
2023-03-16T06:42:55.210Z,8.20
2023-03-16T06:43:55.221Z,14.30
2023-03-16T06:44:55.186Z,10.30
2023-03-16T06:45:55.240Z,9.40
2023-03-16T06:46:55.182Z,11.20
2023-03-16T06:47:55.205Z,9.30
2023-03-16T06:48:55.132Z,7.20
2023-03-16T06:49:55.108Z,12.00
2023-03-16T06:50:55.096Z,8.40
2023-03-16T06:51:55.130Z,7.90
2023-03-16T06:52:55.090Z,13.70
2023-03-16T06:53:55.066Z,13.10
2023-03-16T06:54:55.112Z,9.50
2023-03-16T06:55:55.034Z,7.90
2023-03-16T06:56:55.041Z,6.10
2023-03-16T06:57:55.046Z,8.30
2023-03-16T06:58:55.026Z,15.00
2023-03-16T06:59:55.005Z,9.50
2023-03-16T07:00:55.034Z,9.00
2023-03-16T07:01:54.999Z,7.90
2023-03-16T07:02:54.985Z,7.60
2023-03-16T07:03:54.994Z,7.10
2023-03-16T07:04:54.979Z,8.60
2023-03-16T07:05:54.947Z,10.10
2023-03-16T07:06:54.939Z,9.70
2023-03-16T07:07:54.917Z,7.00
2023-03-16T07:08:54.920Z,8.00
2023-03-16T07:09:54.905Z,7.70
2023-03-16T07:10:54.923Z,10.10
2023-03-16T07:11:54.884Z,9.00
2023-03-16T07:12:54.904Z,8.00
2023-03-16T07:13:54.852Z,8.90
2023-03-16T07:14:54.886Z,9.40
2023-03-16T07:15:54.846Z,7.50
2023-03-16T07:16:54.851Z,8.00
2023-03-16T07:17:54.793Z,7.20
2023-03-16T07:18:54.808Z,7.80
2023-03-16T07:19:54.869Z,8.50
2023-03-16T07:20:54.828Z,7.00
2023-03-16T07:21:54.756Z,9.20
2023-03-16T07:22:54.791Z,8.20
2023-03-16T07:23:54.765Z,5.60
2023-03-16T07:24:54.774Z,9.10
2023-03-16T07:25:54.735Z,7.50
2023-03-16T07:26:54.706Z,7.80
2023-03-16T07:27:54.711Z,8.50
2023-03-16T07:28:57.594Z,8.20
2023-03-16T07:29:54.688Z,8.90
2023-03-16T07:31:03.349Z,9.00
2023-03-16T07:31:54.748Z,9.30
2023-03-16T07:32:54.714Z,7.20
2023-03-16T07:33:54.707Z,7.90
2023-03-16T07:34:54.687Z,7.30
2023-03-16T07:35:54.958Z,7.30
2023-03-16T07:36:54.614Z,8.20
2023-03-16T07:37:54.633Z,9.00
2023-03-16T07:38:54.621Z,7.80
2023-03-16T07:39:54.570Z,6.30
2023-03-16T07:40:54.604Z,8.50
2023-03-16T07:41:54.548Z,5.70
2023-03-16T07:42:54.563Z,7.50
2023-03-16T07:43:54.552Z,9.50
2023-03-16T07:44:54.546Z,9.30
2023-03-16T07:45:54.555Z,8.60
2023-03-16T07:46:54.537Z,6.60
2023-03-16T07:47:54.532Z,7.20
2023-03-16T07:48:54.497Z,6.40
2023-03-16T07:49:54.521Z,8.10
2023-03-16T07:50:54.508Z,7.10
2023-03-16T07:51:54.488Z,7.80
2023-03-16T07:52:54.449Z,7.10
2023-03-16T07:53:54.437Z,8.80
2023-03-16T07:54:54.425Z,9.70
2023-03-16T07:55:54.439Z,8.80
2023-03-16T07:56:54.470Z,5.60
2023-03-16T07:57:54.437Z,6.80
2023-03-16T07:58:54.407Z,7.50
2023-03-16T07:59:54.392Z,7.00
2023-03-16T08:00:54.437Z,7.00
2023-03-16T08:01:54.358Z,6.50
2023-03-16T08:02:54.391Z,9.70
2023-03-16T08:03:54.387Z,9.20
2023-03-16T08:04:54.508Z,8.10
2023-03-16T08:05:54.321Z,7.50
2023-03-16T08:06:54.335Z,7.00
2023-03-16T08:07:54.352Z,8.50
2023-03-16T08:08:54.339Z,8.20
2023-03-16T08:09:54.302Z,8.00
2023-03-16T08:10:56.554Z,7.10
2023-03-16T08:11:54.264Z,8.30
2023-03-16T08:12:54.338Z,7.90
2023-03-16T08:13:54.292Z,5.70
2023-03-16T08:14:54.241Z,9.50
2023-03-16T08:15:54.289Z,7.70
2023-03-16T08:16:54.202Z,6.70
2023-03-16T08:17:54.199Z,8.10
2023-03-16T08:18:54.199Z,9.20
2023-03-16T08:19:54.783Z,6.90
2023-03-16T08:20:54.193Z,7.20
2023-03-16T08:22:01.435Z,8.00
2023-03-16T08:22:54.163Z,6.10
2023-03-16T08:23:54.188Z,6.00
2023-03-16T08:24:54.133Z,5.50
2023-03-16T08:25:54.135Z,8.10
2023-03-16T08:26:54.115Z,8.20
2023-03-16T08:27:54.114Z,6.20
2023-03-16T08:28:54.280Z,5.90
2023-03-16T08:29:54.179Z,7.30
2023-03-16T08:30:54.105Z,8.50
2023-03-16T08:31:54.130Z,8.90
2023-03-16T08:32:54.214Z,7.10
2023-03-16T08:33:54.158Z,6.50
2023-03-16T08:34:54.167Z,7.10
2023-03-16T08:35:54.084Z,6.70
2023-03-16T08:36:54.158Z,8.70
2023-03-16T08:37:54.066Z,6.00
2023-03-16T08:39:06.019Z,9.30
2023-03-16T08:39:54.028Z,7.20
2023-03-16T08:40:54.174Z,6.90
2023-03-16T08:41:54.159Z,7.70
2023-03-16T08:42:53.997Z,6.80
2023-03-16T08:43:54.021Z,6.50
2023-03-16T08:44:53.972Z,7.30
2023-03-16T08:45:54.011Z,6.40
2023-03-16T08:46:54.173Z,6.80
2023-03-16T08:47:53.915Z,10.00
2023-03-16T08:48:53.934Z,5.90
2023-03-16T08:49:53.987Z,7.00
2023-03-16T08:50:53.862Z,6.10
2023-03-16T08:51:53.912Z,8.20
2023-03-16T08:52:53.896Z,8.10
2023-03-16T08:53:53.907Z,5.70
2023-03-16T08:55:02.990Z,7.90
2023-03-16T08:55:53.890Z,7.90
2023-03-16T08:56:53.876Z,6.00
2023-03-16T08:57:53.871Z,6.40
2023-03-16T08:58:53.885Z,6.20
2023-03-16T08:59:53.852Z,6.30
2023-03-16T09:00:53.823Z,5.80
2023-03-16T09:01:53.836Z,6.30
2023-03-16T09:02:53.767Z,6.80
2023-03-16T09:03:54.624Z,7.60
2023-03-16T09:04:54.470Z,6.60
2023-03-16T09:05:53.752Z,5.60
2023-03-16T09:07:09.851Z,8.00
2023-03-16T09:07:53.701Z,7.50
2023-03-16T09:08:54.292Z,7.10
2023-03-16T09:09:53.742Z,8.40
2023-03-16T09:10:53.680Z,6.50
2023-03-16T09:11:53.735Z,11.90
2023-03-16T09:12:53.727Z,8.60
2023-03-16T09:13:53.829Z,8.40
2023-03-16T09:14:53.698Z,6.10
2023-03-16T09:15:53.720Z,8.20
2023-03-16T09:16:53.627Z,6.30
2023-03-16T09:17:53.649Z,6.60
2023-03-16T09:18:53.578Z,7.00
2023-03-16T09:19:56.288Z,6.60
2023-03-16T09:20:53.591Z,7.40
2023-03-16T09:21:53.693Z,7.70
2023-03-16T09:22:53.598Z,7.80
2023-03-16T09:23:53.519Z,8.20
2023-03-16T09:24:53.541Z,6.80
2023-03-16T09:25:53.649Z,5.50
2023-03-16T09:26:53.581Z,7.70
2023-03-16T09:27:53.491Z,7.50
2023-03-16T09:28:53.495Z,8.10
2023-03-16T09:29:53.536Z,5.50
2023-03-16T09:30:53.437Z,7.90
2023-03-16T09:31:53.486Z,6.60
2023-03-16T09:32:54.393Z,6.80
2023-03-16T09:33:53.457Z,7.50
2023-03-16T09:34:53.423Z,8.10
2023-03-16T09:35:53.538Z,8.20
2023-03-16T09:36:53.420Z,8.70
2023-03-16T09:38:05.646Z,6.60
2023-03-16T09:38:53.432Z,6.90
2023-03-16T09:39:57.970Z,6.40
2023-03-16T09:40:53.354Z,7.10
2023-03-16T09:41:53.338Z,6.80
2023-03-16T09:42:53.380Z,7.00
2023-03-16T09:43:53.317Z,7.70
2023-03-16T09:44:53.319Z,8.10
2023-03-16T09:45:53.391Z,7.40
2023-03-16T09:46:53.280Z,6.40
2023-03-16T09:47:53.261Z,7.40
2023-03-16T09:48:53.317Z,10.10
2023-03-16T09:49:53.272Z,7.30
2023-03-16T09:50:53.622Z,7.10
2023-03-16T09:51:53.275Z,6.00
2023-03-16T09:52:53.259Z,7.30
2023-03-16T09:53:53.842Z,10.60
2023-03-16T09:54:53.405Z,7.90
2023-03-16T09:55:53.269Z,7.00
2023-03-16T09:56:53.147Z,7.50
2023-03-16T09:57:53.179Z,7.80
2023-03-16T09:58:53.174Z,6.60
2023-03-16T09:59:53.137Z,9.00
2023-03-16T10:00:53.193Z,6.90
2023-03-16T10:01:53.983Z,6.70
2023-03-16T10:02:53.519Z,8.00
2023-03-16T10:03:53.497Z,6.10
2023-03-16T10:04:54.195Z,7.80
2023-03-16T10:05:53.110Z,6.10
2023-03-16T10:06:53.063Z,7.40
2023-03-16T10:07:53.570Z,8.20
2023-03-16T10:08:53.171Z,9.00
2023-03-16T10:09:53.096Z,6.50
2023-03-16T10:10:53.023Z,8.00
2023-03-16T10:11:53.062Z,5.90
2023-03-16T10:12:52.975Z,6.80
2023-03-16T10:13:52.980Z,9.30
2023-03-16T10:14:54.039Z,6.90
2023-03-16T10:15:53.141Z,8.20
2023-03-16T10:16:55.343Z,6.80
2023-03-16T10:17:52.995Z,7.60
2023-03-16T10:18:52.969Z,7.50
2023-03-16T10:19:52.907Z,10.50
2023-03-16T10:20:52.939Z,7.50
2023-03-16T10:21:52.975Z,7.20
2023-03-16T10:22:52.999Z,10.10
2023-03-16T10:23:52.942Z,9.80
2023-03-16T10:24:52.888Z,7.40
2023-03-16T10:25:52.950Z,8.00
2023-03-16T10:26:52.949Z,7.70
2023-03-16T10:27:54.540Z,8.80
2023-03-16T10:28:52.995Z,7.10
2023-03-16T10:29:52.811Z,8.10
2023-03-16T10:30:52.850Z,10.00
2023-03-16T10:31:54.806Z,10.70
2023-03-16T10:32:52.849Z,6.80
2023-03-16T10:33:52.765Z,11.50
2023-03-16T10:34:52.761Z,6.70
2023-03-16T10:35:52.850Z,8.00
2023-03-16T10:36:53.127Z,9.00
2023-03-16T10:37:52.724Z,8.20
2023-03-16T10:38:52.689Z,6.50
2023-03-16T10:39:52.712Z,8.20
2023-03-16T10:40:52.686Z,9.60
2023-03-16T10:41:52.735Z,7.30
2023-03-16T10:42:52.670Z,7.60
2023-03-16T10:43:52.755Z,6.90
2023-03-16T10:44:52.618Z,9.50
2023-03-16T10:45:52.695Z,7.70
2023-03-16T10:46:52.807Z,8.20
2023-03-16T10:47:52.718Z,10.40
2023-03-16T10:48:53.229Z,9.10
2023-03-16T10:49:52.635Z,8.90
2023-03-16T10:50:52.628Z,7.60
2023-03-16T10:51:52.573Z,9.80
2023-03-16T10:52:52.554Z,9.30
2023-03-16T10:53:52.611Z,9.80
2023-03-16T10:54:52.666Z,8.10
2023-03-16T10:55:52.550Z,7.20
2023-03-16T10:56:52.556Z,8.70
2023-03-16T10:57:52.530Z,6.90
2023-03-16T10:58:52.556Z,8.50
2023-03-16T10:59:52.635Z,7.60
2023-03-16T11:00:52.528Z,6.70
2023-03-16T11:01:52.486Z,11.50
2023-03-16T11:02:52.462Z,7.50
2023-03-16T11:03:52.502Z,11.30
2023-03-16T11:04:52.585Z,8.30
2023-03-16T11:05:52.459Z,7.10
2023-03-16T11:06:52.412Z,8.60
2023-03-16T11:07:52.399Z,8.40
2023-03-16T11:08:53.015Z,6.40
2023-03-16T11:09:52.416Z,8.60
2023-03-16T11:10:55.899Z,8.40
2023-03-16T11:11:52.482Z,8.60
2023-03-16T11:12:53.055Z,7.90
2023-03-16T11:13:52.336Z,8.20
2023-03-16T11:14:52.353Z,8.40
2023-03-16T11:15:52.485Z,6.50
2023-03-16T11:16:52.405Z,8.80
2023-03-16T11:17:52.379Z,7.50
2023-03-16T11:18:52.380Z,7.90
2023-03-16T11:19:52.304Z,8.20
2023-03-16T11:20:52.263Z,7.30
2023-03-16T11:21:52.270Z,8.60
2023-03-16T11:22:52.522Z,8.00
2023-03-16T11:23:52.245Z,8.10
2023-03-16T11:24:52.194Z,7.70
2023-03-16T11:25:52.212Z,7.40
2023-03-16T11:26:52.156Z,8.20
2023-03-16T11:27:52.204Z,7.50
2023-03-16T11:28:52.166Z,9.60
2023-03-16T11:29:52.136Z,6.70
2023-03-16T11:30:52.172Z,7.80
2023-03-16T11:31:52.136Z,7.50
2023-03-16T11:32:52.216Z,8.90
2023-03-16T11:33:53.004Z,6.70
2023-03-16T11:34:52.079Z,7.80
2023-03-16T11:35:58.741Z,10.80
2023-03-16T11:36:52.087Z,14.60
2023-03-16T11:37:52.074Z,8.80
2023-03-16T11:38:52.100Z,7.20
2023-03-16T11:39:52.058Z,6.80
2023-03-16T11:40:52.061Z,7.60
2023-03-16T11:41:52.054Z,7.60
2023-03-16T11:42:52.022Z,7.80
2023-03-16T11:43:52.007Z,7.50
2023-03-16T11:44:52.057Z,8.90
2023-03-16T11:45:52.010Z,6.70
2023-03-16T11:46:52.001Z,7.00
2023-03-16T11:47:52.049Z,8.10
2023-03-16T11:48:51.966Z,6.70
2023-03-16T11:49:51.955Z,6.90
2023-03-16T11:50:51.925Z,8.40
2023-03-16T11:51:51.989Z,4.90
2023-03-16T11:52:51.901Z,6.20
2023-03-16T11:53:51.915Z,8.90
2023-03-16T11:54:51.870Z,7.70
2023-03-16T11:55:51.856Z,7.00
2023-03-16T11:56:52.833Z,7.50
2023-03-16T11:57:51.995Z,8.90
2023-03-16T11:58:51.862Z,9.00
2023-03-16T12:00:00.589Z,7.90
2023-03-16T12:00:51.830Z,5.70
2023-03-16T12:02:00.128Z,6.40
2023-03-16T12:02:51.892Z,5.40
2023-03-16T12:03:51.858Z,8.70
2023-03-16T12:04:51.795Z,8.20
2023-03-16T12:05:51.749Z,9.00
2023-03-16T12:06:51.791Z,6.60
2023-03-16T12:07:51.764Z,7.40
2023-03-16T12:08:51.727Z,6.00
2023-03-16T12:09:51.741Z,6.00
2023-03-16T12:10:51.744Z,7.00
2023-03-16T12:11:51.696Z,8.80
2023-03-16T12:12:51.680Z,6.90
2023-03-16T12:13:51.668Z,7.80
2023-03-16T12:14:51.659Z,8.80
2023-03-16T12:15:51.804Z,7.60
2023-03-16T12:16:51.695Z,8.70
2023-03-16T12:17:51.647Z,6.70
2023-03-16T12:18:51.613Z,4.90
2023-03-16T12:19:51.628Z,6.00
2023-03-16T12:20:51.593Z,6.10
2023-03-16T12:21:51.599Z,6.50
2023-03-16T12:22:51.555Z,6.80
2023-03-16T12:23:51.592Z,6.50
2023-03-16T12:24:51.574Z,4.80
2023-03-16T12:25:51.541Z,7.50
2023-03-16T12:26:51.550Z,7.00
2023-03-16T12:27:51.507Z,6.30
2023-03-16T12:28:51.602Z,7.60
2023-03-16T12:29:52.316Z,8.80
2023-03-16T12:30:51.476Z,5.40
2023-03-16T12:31:51.988Z,6.40
2023-03-16T12:32:51.561Z,6.30
2023-03-16T12:33:51.462Z,5.30
2023-03-16T12:34:51.482Z,8.90
2023-03-16T12:35:51.459Z,5.70
2023-03-16T12:36:51.431Z,5.10
2023-03-16T12:37:51.390Z,5.40
2023-03-16T12:38:51.466Z,8.70
2023-03-16T12:39:51.426Z,12.40
2023-03-16T12:40:51.388Z,6.00
2023-03-16T12:41:51.372Z,5.30
2023-03-16T12:42:51.376Z,5.20
2023-03-16T12:43:51.422Z,4.50
2023-03-16T12:44:51.365Z,8.60
2023-03-16T12:45:51.382Z,5.10
2023-03-16T12:46:51.340Z,6.20
2023-03-16T12:47:51.322Z,5.30
2023-03-16T12:48:51.344Z,7.30
2023-03-16T12:49:51.290Z,7.20
2023-03-16T12:50:51.278Z,6.70
2023-03-16T12:51:51.277Z,6.90
2023-03-16T12:52:51.273Z,6.20
2023-03-16T12:53:51.248Z,20.20
2023-03-16T12:54:51.236Z,5.40
2023-03-16T12:55:51.210Z,5.60
2023-03-16T12:56:51.269Z,17.00
2023-03-16T12:57:51.204Z,10.70
2023-03-16T12:58:51.170Z,9.60
2023-03-16T12:59:51.179Z,6.80
2023-03-16T13:00:51.214Z,11.60
2023-03-16T13:01:51.197Z,7.20
2023-03-16T13:02:51.180Z,5.50
2023-03-16T13:03:51.146Z,9.30
2023-03-16T13:04:51.938Z,7.10
2023-03-16T13:05:51.104Z,6.00
2023-03-16T13:06:51.123Z,9.70
2023-03-16T13:07:51.502Z,7.70
2023-03-16T13:08:51.096Z,4.90
2023-03-16T13:09:51.080Z,5.50
2023-03-16T13:10:51.159Z,6.50
2023-03-16T13:11:51.066Z,5.50